Disentis, Switzerland
Current Conditions -  °F | °C
As of 12:50 AM on Monday 24 Nov 2014 (Local Time) from LSZC Reporting Station
Haze Haze  
Wind Chill: 43°   Ceiling: 12000
Heat Index: 43°   Visibility: 2.5mi
Dew Point: 43°   Wind: 3mph
Humidity: 100%   Direction: NA
Pressure: 30.18"   Gusts: NA
Location:  46.7°N, 8.84°E
Report Text: LSZC 232350Z AUTO VRB03KT 4000 BR FEW100 BKN120 06/06 Q1022
Loading
Personal Weather Stations






























Interactive Weather Map New forecast layout! Learn more

10-Day Weather Forecast

Advertisements
Track Severe Weather on mobile